Terminal Aerodrome Forecast
Issued by NWS

Home | Current Version | Previous Version | Graphics & Text | Print | Product List | Glossary On
Versions: 1 2 3 4 5 6 7 8 9 10 11 12 13 14 15 16 17
000
FTUS42 KMHX 141100
TAFOAJ
TAF
KOAJ 141120Z 1412/1512 17006KT P6SM FEW030 SCT250
     FM141400 17015G24KT P6SM BKN035 OVC200
     FM142300 16012KT P6SM VCSH BKN015
     FM150300 17010KT P6SM VCSH OVC007
      AMD LTD TO CLD VIS AND WIND=

USA.gov is the U.S. government's official web portal to all federal, state and local government web resources and services.